Time;durP1;ratioP1;P1;durP2;ratioP2;P2;SDS_P1;SDS_P2;PMS_P1;PMS_P2;Temp;Humidity;BMP_temperature;BMP_pressure;BME280_temperature;BME280_humidity;BME280_pressure;Samples;Min_cycle;Max_cycle;Signal;HPM_P1;HPM_P2
2021/03/12 00:01:30;;;;;;;2.70;1.70;;;7.80;99.90;;;;;;5053198;28;20832;-71
2021/03/12 00:03:57;;;;;;;5.37;2.00;;;7.80;99.90;;;;;;5055767;28;20932;-68
2021/03/12 00:06:24;;;;;;;3.87;1.30;;;7.80;99.90;;;;;;5051309;28;21017;-71
2021/03/12 00:08:50;;;;;;;4.10;1.93;;;7.90;99.90;;;;;;5052370;28;20425;-70
2021/03/12 00:11:18;;;;;;;1.27;1.00;;;7.90;99.90;;;;;;5052650;28;20471;-70
2021/03/12 00:13:44;;;;;;;2.13;1.30;;;7.90;99.90;;;;;;5059858;28;20494;-69
2021/03/12 00:16:12;;;;;;;2.20;1.43;;;7.70;99.90;;;;;;5050485;28;20486;-70
2021/03/12 00:18:40;;;;;;;1.50;1.23;;;7.70;99.90;;;;;;5053526;28;20457;-69
2021/03/12 00:21:08;;;;;;;8.13;2.30;;;7.70;99.90;;;;;;5059132;28;20467;-71
2021/03/12 00:23:36;;;;;;;1.57;1.10;;;7.60;99.90;;;;;;5059771;28;20523;-69
2021/03/12 00:26:03;;;;;;;2.10;1.70;;;7.50;99.90;;;;;;5051546;28;20462;-71
2021/03/12 00:28:30;;;;;;;1.57;1.30;;;7.50;99.90;;;;;;5051557;28;20421;-69
2021/03/12 00:30:56;;;;;;;6.53;2.70;;;7.40;99.90;;;;;;5047339;28;20485;-70
2021/03/12 00:33:26;;;;;;;1.10;1.00;;;7.30;99.90;;;;;;5054582;28;20426;-69
2021/03/12 00:35:53;;;;;;;1.90;1.33;;;7.30;99.90;;;;;;5047251;28;20493;-70
2021/03/12 00:38:19;;;;;;;1.63;1.53;;;7.30;99.90;;;;;;5056446;28;20566;-69
2021/03/12 00:40:51;;;;;;;4.10;2.20;;;7.40;99.90;;;;;;5051768;28;20535;-70
2021/03/12 00:43:19;;;;;;;5.43;1.43;;;7.40;99.90;;;;;;5052599;28;21854;-69
2021/03/12 00:45:48;;;;;;;2.10;1.20;;;7.50;99.90;;;;;;5048725;28;20464;-70
2021/03/12 00:48:15;;;;;;;1.17;1.07;;;7.50;99.90;;;;;;5050607;28;20880;-69
2021/03/12 00:50:43;;;;;;;6.63;1.93;;;7.50;99.90;;;;;;5058285;28;20521;-70
2021/03/12 00:53:10;;;;;;;2.07;1.87;;;7.50;99.90;;;;;;5053587;28;20452;-69
2021/03/12 00:55:37;;;;;;;2.00;1.30;;;7.50;99.90;;;;;;5055507;28;20631;-69
2021/03/12 00:58:04;;;;;;;3.23;2.67;;;7.50;99.90;;;;;;5053545;28;20490;-69
2021/03/12 01:00:34;;;;;;;1.20;1.10;;;7.60;99.90;;;;;;5054483;28;20434;-68
2021/03/12 01:03:00;;;;;;;2.03;1.40;;;7.50;99.90;;;;;;5056001;28;20821;-68
2021/03/12 01:05:28;;;;;;;1.50;1.20;;;7.60;99.90;;;;;;5046960;28;20490;-70
2021/03/12 01:07:56;;;;;;;1.73;1.20;;;7.70;99.90;;;;;;5053315;28;21011;-69
2021/03/12 01:10:23;;;;;;;0.90;0.70;;;7.70;99.90;;;;;;5049818;28;20453;-69
2021/03/12 01:12:50;;;;;;;3.00;1.60;;;7.60;99.90;;;;;;5051215;28;20447;-71
2021/03/12 01:15:19;;;;;;;1.97;1.83;;;7.50;99.90;;;;;;5057344;28;20835;-72
2021/03/12 01:17:50;;;;;;;1.70;1.00;;;7.50;99.90;;;;;;5050539;28;20504;-70
2021/03/12 01:20:19;;;;;;;1.23;1.13;;;7.50;99.90;;;;;;5056328;28;20540;-71
2021/03/12 01:22:46;;;;;;;8.33;2.50;;;7.40;99.90;;;;;;5046975;28;20967;-71
2021/03/12 01:25:17;;;;;;;4.03;1.80;;;7.30;99.90;;;;;;5050972;28;20450;-69
2021/03/12 01:27:44;;;;;;;1.93;1.20;;;7.20;99.90;;;;;;5049365;28;20486;-70
2021/03/12 01:30:14;;;;;;;3.87;2.13;;;7.20;99.90;;;;;;5054245;28;20864;-69
2021/03/12 01:32:41;;;;;;;1.67;1.57;;;7.30;99.90;;;;;;5053418;28;20539;-70
2021/03/12 01:35:09;;;;;;;2.00;1.47;;;7.20;99.90;;;;;;5057650;28;20443;-71
2021/03/12 01:37:35;;;;;;;1.63;1.43;;;7.20;99.90;;;;;;5052721;28;20529;-71
2021/03/12 01:40:04;;;;;;;3.10;2.80;;;7.20;99.90;;;;;;5050098;28;20447;-70
2021/03/12 01:42:31;;;;;;;4.20;3.03;;;6.90;99.90;;;;;;5053778;28;20466;-70
2021/03/12 01:44:58;;;;;;;4.03;1.90;;;6.70;99.90;;;;;;5044844;28;20421;-71
2021/03/12 01:47:25;;;;;;;6.00;4.40;;;6.50;99.90;;;;;;5051398;28;20510;-70
2021/03/12 01:49:52;;;;;;;2.20;1.97;;;6.50;99.90;;;;;;5030278;28;20593;-69
2021/03/12 01:52:18;;;;;;;3.37;3.00;;;6.50;99.90;;;;;;5051298;28;21052;-70
2021/03/12 01:54:45;;;;;;;5.07;2.33;;;6.60;99.90;;;;;;5050137;28;20840;-69
2021/03/12 01:57:12;;;;;;;2.30;2.10;;;6.50;99.90;;;;;;5045492;28;20921;-70
2021/03/12 01:59:40;;;;;;;7.33;3.43;;;6.60;99.90;;;;;;5053549;28;20917;-69
2021/03/12 02:02:06;;;;;;;3.00;2.73;;;6.60;99.90;;;;;;5051817;28;20465;-72
2021/03/12 02:04:33;;;;;;;3.60;3.20;;;6.70;99.90;;;;;;5049175;28;20489;-71
2021/03/12 02:07:00;;;;;;;9.23;2.73;;;6.60;99.90;;;;;;5049803;28;21004;-70
2021/03/12 02:09:27;;;;;;;4.87;4.03;;;6.50;99.90;;;;;;5051055;28;20569;-70
2021/03/12 02:12:02;;;;;;;3.80;3.50;;;6.50;99.90;;;;;;5032905;28;20589;-70
2021/03/12 02:14:33;;;;;;;8.70;4.10;;;6.50;99.90;;;;;;5051101;28;20442;-71
2021/03/12 02:17:09;;;;;;;6.50;4.47;;;6.50;99.90;;;;;;5053735;28;20458;-71
2021/03/12 02:19:51;;;;;;;8.23;4.80;;;6.50;99.90;;;;;;5048022;28;20450;-69
2021/03/12 02:22:21;;;;;;;3.73;3.33;;;6.60;99.90;;;;;;5040899;28;20582;-71
2021/03/12 02:24:53;;;;;;;9.83;4.40;;;6.60;99.90;;;;;;5040689;28;20533;-68
2021/03/12 02:27:24;;;;;;;4.57;4.10;;;6.70;99.90;;;;;;5052500;28;20521;-69
2021/03/12 02:29:52;;;;;;;11.53;4.90;;;6.80;99.90;;;;;;5054848;28;20487;-70
2021/03/12 02:32:25;;;;;;;5.40;4.67;;;6.80;99.90;;;;;;5052807;28;20886;-69
2021/03/12 02:34:53;;;;;;;7.57;3.27;;;6.80;99.90;;;;;;5051845;28;20451;-68
2021/03/12 02:37:23;;;;;;;9.00;3.70;;;6.80;99.90;;;;;;5049317;28;20975;-69
2021/03/12 02:39:54;;;;;;;6.93;2.80;;;6.80;99.90;;;;;;5045036;28;20449;-70
2021/03/12 02:42:22;;;;;;;2.67;2.47;;;6.80;99.90;;;;;;5049490;28;20429;-69
2021/03/12 02:44:49;;;;;;;3.00;2.70;;;6.80;99.90;;;;;;5051909;28;21474;-69
2021/03/12 02:47:23;;;;;;;2.37;1.63;;;6.80;99.90;;;;;;5050111;28;20531;-70
2021/03/12 02:49:51;;;;;;;3.10;1.87;;;6.80;99.90;;;;;;5052085;28;20986;-70
2021/03/12 02:52:19;;;;;;;4.03;1.47;;;6.80;99.90;;;;;;5052309;28;20532;-70
2021/03/12 02:54:46;;;;;;;2.67;2.47;;;6.80;99.90;;;;;;5051872;28;20432;-71
2021/03/12 02:57:15;;;;;;;6.13;4.50;;;6.70;99.90;;;;;;5046439;28;20461;-70
2021/03/12 02:59:43;;;;;;;6.33;2.10;;;6.70;99.90;;;;;;5042135;28;20539;-69
2021/03/12 03:02:11;;;;;;;2.07;1.20;;;6.80;99.90;;;;;;5054622;28;20473;-68
2021/03/12 03:04:39;;;;;;;2.50;2.13;;;6.80;99.90;;;;;;5052327;28;20780;-70
2021/03/12 03:07:07;;;;;;;1.70;1.60;;;6.80;99.90;;;;;;5049565;28;20492;-70
2021/03/12 03:09:36;;;;;;;4.10;2.60;;;6.90;99.90;;;;;;5050564;28;20958;-70
2021/03/12 03:12:03;;;;;;;2.90;2.20;;;6.90;99.90;;;;;;5053087;28;20460;-68
2021/03/12 03:14:32;;;;;;;2.10;1.80;;;6.90;99.90;;;;;;5052735;28;20421;-69
2021/03/12 03:17:02;;;;;;;4.20;3.00;;;7.00;99.90;;;;;;5048309;28;20434;-69
2021/03/12 03:19:31;;;;;;;2.97;2.70;;;7.00;99.90;;;;;;5058211;28;20471;-70
2021/03/12 03:21:59;;;;;;;3.30;2.77;;;7.00;99.90;;;;;;5054983;28;20474;-70
2021/03/12 03:24:26;;;;;;;3.60;2.53;;;7.10;99.90;;;;;;5056819;28;20418;-69
2021/03/12 03:26:53;;;;;;;8.97;3.63;;;7.10;99.90;;;;;;5054623;28;20955;-69
2021/03/12 03:29:20;;;;;;;3.70;3.20;;;7.10;99.90;;;;;;5054634;28;20517;-70
2021/03/12 03:31:47;;;;;;;6.43;4.17;;;7.00;99.90;;;;;;5054644;28;20493;-69
2021/03/12 03:34:15;;;;;;;4.57;4.13;;;7.00;99.90;;;;;;5062239;28;20425;-69
2021/03/12 03:36:43;;;;;;;5.73;2.03;;;7.00;99.90;;;;;;5050295;28;20468;-69
2021/03/12 03:39:10;;;;;;;5.80;3.80;;;7.00;99.90;;;;;;5052377;28;20477;-69
2021/03/12 03:41:41;;;;;;;19.97;3.70;;;7.10;99.90;;;;;;5057764;28;20453;-69
2021/03/12 03:44:10;;;;;;;9.10;2.10;;;7.20;99.90;;;;;;5055497;28;20454;-68
2021/03/12 03:46:38;;;;;;;6.43;4.00;;;7.20;99.90;;;;;;5060915;28;20453;-69
2021/03/12 03:49:06;;;;;;;5.00;2.50;;;7.20;99.90;;;;;;5056645;28;20933;-70
2021/03/12 03:51:33;;;;;;;5.30;2.80;;;7.10;99.90;;;;;;5059630;28;20437;-70
2021/03/12 03:54:01;;;;;;;2.07;1.87;;;7.10;99.90;;;;;;5057981;28;20424;-70
2021/03/12 03:56:29;;;;;;;5.47;2.53;;;7.00;99.90;;;;;;5053815;28;20936;-69
2021/03/12 03:58:58;;;;;;;3.77;2.50;;;7.00;99.90;;;;;;5056780;28;20478;-70
2021/03/12 04:01:26;;;;;;;2.00;1.80;;;7.10;99.90;;;;;;5051352;28;20476;-70
2021/03/12 04:03:54;;;;;;;2.87;2.63;;;7.10;99.90;;;;;;5058753;28;20422;-69
2021/03/12 04:06:21;;;;;;;2.43;1.70;;;7.10;99.90;;;;;;5052341;28;20517;-71
2021/03/12 04:08:50;;;;;;;7.20;4.20;;;7.00;99.90;;;;;;5053561;28;20458;-70
2021/03/12 04:11:17;;;;;;;3.37;1.73;;;7.10;99.90;;;;;;5055341;28;20456;-69
2021/03/12 04:13:44;;;;;;;8.53;2.13;;;7.10;99.90;;;;;;5054133;28;21468;-69
2021/03/12 04:16:12;;;;;;;4.50;2.90;;;7.10;99.90;;;;;;5050868;28;20579;-68
2021/03/12 04:18:41;;;;;;;3.83;1.50;;;7.00;99.90;;;;;;5046036;28;20471;-70
2021/03/12 04:21:08;;;;;;;5.43;2.20;;;7.10;99.90;;;;;;5051200;28;20487;-70
2021/03/12 04:23:34;;;;;;;2.00;1.80;;;7.10;99.90;;;;;;5049988;28;20512;-68
2021/03/12 04:26:03;;;;;;;3.67;2.50;;;7.10;99.90;;;;;;5048962;28;20465;-68
2021/03/12 04:28:30;;;;;;;2.07;1.87;;;7.10;99.90;;;;;;5055658;28;20433;-70
2021/03/12 04:30:57;;;;;;;3.17;1.13;;;7.00;99.90;;;;;;5046911;28;20457;-68
2021/03/12 04:33:23;;;;;;;6.80;2.87;;;7.10;99.90;;;;;;5054997;28;20430;-70
2021/03/12 04:35:50;;;;;;;6.30;2.50;;;7.00;99.90;;;;;;5052049;28;20473;-69
2021/03/12 04:38:18;;;;;;;4.60;2.57;;;7.10;99.90;;;;;;5051128;28;20947;-70
2021/03/12 04:40:45;;;;;;;2.80;1.67;;;7.10;99.90;;;;;;5050932;28;20619;-70
2021/03/12 04:43:13;;;;;;;1.60;1.23;;;7.10;99.90;;;;;;5052686;28;21057;-71
2021/03/12 04:45:39;;;;;;;5.47;2.47;;;7.10;99.90;;;;;;5060560;28;20827;-70
2021/03/12 04:48:07;;;;;;;2.93;2.63;;;7.10;99.90;;;;;;5062733;28;20457;-70
2021/03/12 04:50:35;;;;;;;3.83;1.33;;;7.00;99.90;;;;;;5063750;28;20507;-70
2021/03/12 04:53:02;;;;;;;6.27;2.50;;;7.10;99.90;;;;;;5058339;28;20447;-70
2021/03/12 04:55:29;;;;;;;1.63;1.53;;;7.10;99.90;;;;;;5053976;28;20667;-69
2021/03/12 04:57:56;;;;;;;1.87;1.70;;;7.00;99.90;;;;;;5060688;28;20488;-70
2021/03/12 05:00:24;;;;;;;5.27;2.00;;;7.10;99.90;;;;;;5058638;28;21025;-70
2021/03/12 05:02:51;;;;;;;1.33;1.23;;;7.00;99.90;;;;;;5051527;28;20514;-68
2021/03/12 05:05:18;;;;;;;3.90;2.47;;;7.00;99.90;;;;;;5050360;28;20457;-68
2021/03/12 05:07:45;;;;;;;3.00;1.87;;;7.00;99.90;;;;;;5054005;28;20455;-69
2021/03/12 05:10:12;;;;;;;3.33;2.50;;;7.00;99.90;;;;;;5056809;28;20473;-69
2021/03/12 05:12:39;;;;;;;3.23;2.83;;;6.90;99.90;;;;;;5049986;28;20491;-69
2021/03/12 05:15:07;;;;;;;2.70;2.30;;;6.90;99.90;;;;;;5059826;28;20951;-69
2021/03/12 05:17:34;;;;;;;2.70;1.50;;;6.90;99.90;;;;;;5052394;28;20935;-69
2021/03/12 05:20:01;;;;;;;2.03;1.40;;;7.00;99.90;;;;;;5057725;28;20425;-68
2021/03/12 05:22:30;;;;;;;10.67;2.97;;;7.00;99.90;;;;;;5060022;28;20532;-69
2021/03/12 05:24:56;;;;;;;4.57;2.63;;;6.90;99.90;;;;;;5054730;28;20449;-69
2021/03/12 05:27:23;;;;;;;7.33;3.13;;;6.90;99.90;;;;;;5056366;28;20481;-69
2021/03/12 05:29:50;;;;;;;6.20;1.63;;;6.80;99.90;;;;;;5060387;28;20977;-68
2021/03/12 05:32:17;;;;;;;1.90;1.70;;;6.80;99.90;;;;;;5057215;28;20470;-69
2021/03/12 05:34:45;;;;;;;5.53;2.20;;;6.70;99.90;;;;;;5053702;28;20948;-69
2021/03/12 05:37:11;;;;;;;5.43;2.93;;;6.70;99.90;;;;;;5055204;28;20456;-69
2021/03/12 05:39:38;;;;;;;2.73;1.70;;;6.70;99.90;;;;;;5053382;28;20487;-68
2021/03/12 05:42:07;;;;;;;2.77;2.50;;;6.80;99.90;;;;;;5051689;28;20456;-70
2021/03/12 05:44:34;;;;;;;3.53;3.23;;;6.90;99.90;;;;;;5044704;28;20625;-69
2021/03/12 05:47:01;;;;;;;16.10;4.30;;;7.00;99.90;;;;;;5046162;28;20464;-69
2021/03/12 05:49:28;;;;;;;5.40;2.90;;;7.00;99.90;;;;;;5051863;28;20461;-70
2021/03/12 05:51:55;;;;;;;4.80;2.50;;;7.10;99.90;;;;;;5050975;28;20486;-70
2021/03/12 05:54:22;;;;;;;3.13;2.93;;;7.00;99.90;;;;;;5046470;28;20483;-72
2021/03/12 05:56:49;;;;;;;4.10;1.73;;;7.10;99.90;;;;;;5054951;28;20437;-70
2021/03/12 05:59:19;;;;;;;8.10;2.60;;;6.90;99.90;;;;;;5046041;28;20462;-70
2021/03/12 06:01:45;;;;;;;5.13;4.73;;;6.90;99.90;;;;;;5043730;28;20508;-70
2021/03/12 06:04:13;;;;;;;2.67;2.43;;;6.80;99.90;;;;;;5045469;28;20600;-71
2021/03/12 06:06:40;;;;;;;15.80;3.57;;;6.80;99.90;;;;;;5045534;28;20441;-71
2021/03/12 06:09:07;;;;;;;1.60;1.27;;;6.70;99.90;;;;;;5052704;28;20433;-70
2021/03/12 06:11:34;;;;;;;4.07;2.30;;;6.80;99.90;;;;;;5052671;28;20485;-70
2021/03/12 06:14:00;;;;;;;2.37;2.10;;;6.80;99.90;;;;;;5047781;28;20479;-70
2021/03/12 06:16:28;;;;;;;9.60;2.37;;;6.70;99.90;;;;;;5047020;28;20501;-69
2021/03/12 06:19:17;;;;;;;2.20;1.40;;;6.70;99.90;;;;;;5057178;28;20538;-69
2021/03/12 06:21:45;;;;;;;2.97;2.20;;;6.70;99.90;;;;;;5058471;28;22165;-70
2021/03/12 06:24:33;;;;;;;3.10;2.47;;;6.70;99.90;;;;;;5060636;28;20439;-69
2021/03/12 06:27:00;;;;;;;4.40;1.53;;;6.70;99.90;;;;;;5055875;28;20513;-70
2021/03/12 06:29:34;;;;;;;3.80;1.23;;;6.70;99.90;;;;;;5064454;28;20482;-70
2021/03/12 06:32:02;;;;;;;3.53;1.57;;;6.70;99.90;;;;;;5052034;28;20475;-69
2021/03/12 06:34:29;;;;;;;1.93;1.83;;;6.70;99.90;;;;;;5056054;28;20422;-68
2021/03/12 06:36:56;;;;;;;2.20;2.00;;;6.70;99.90;;;;;;5058764;28;20513;-68
2021/03/12 06:39:32;;;;;;;3.70;1.83;;;6.80;99.90;;;;;;5052907;28;21022;-69
2021/03/12 06:41:58;;;;;;;1.37;0.87;;;6.80;99.90;;;;;;5052592;28;20590;-69
2021/03/12 06:44:32;;;;;;;1.50;1.00;;;6.80;99.90;;;;;;5055251;28;20852;-69
2021/03/12 06:47:00;;;;;;;1.53;1.43;;;6.90;99.90;;;;;;5056195;28;20797;-69
2021/03/12 06:49:26;;;;;;;2.33;2.10;;;6.90;99.90;;;;;;5057506;28;20493;-70
2021/03/12 06:51:58;;;;;;;3.73;1.20;;;7.00;99.90;;;;;;5056359;28;20536;-71
2021/03/12 06:54:27;;;;;;;1.40;1.07;;;7.00;99.90;;;;;;5055461;28;20425;-68
2021/03/12 06:56:55;;;;;;;1.77;1.00;;;7.00;99.90;;;;;;5060593;28;20485;-69
2021/03/12 06:59:27;;;;;;;4.97;1.40;;;7.00;99.90;;;;;;5061174;28;21022;-71
2021/03/12 07:02:00;;;;;;;1.97;1.30;;;7.10;99.90;;;;;;5057357;28;20968;-69
2021/03/12 07:04:28;;;;;;;1.23;1.13;;;7.10;99.90;;;;;;5059779;28;20433;-71
2021/03/12 07:06:55;;;;;;;1.77;1.47;;;7.20;99.90;;;;;;5057139;28;20469;-71
2021/03/12 07:09:24;;;;;;;1.57;1.40;;;7.10;99.90;;;;;;5061102;28;20504;-69
2021/03/12 07:11:57;;;;;;;4.10;1.73;;;7.30;99.90;;;;;;5060930;28;20449;-69
2021/03/12 07:14:24;;;;;;;1.03;0.90;;;7.40;99.90;;;;;;5057683;28;20942;-70
2021/03/12 07:16:51;;;;;;;13.90;1.57;;;7.30;99.90;;;;;;5062287;28;20466;-71
2021/03/12 07:19:19;;;;;;;2.30;1.90;;;7.40;99.90;;;;;;5060013;28;20474;-71
2021/03/12 07:21:50;;;;;;;2.70;1.43;;;7.50;99.90;;;;;;5063644;28;20449;-70
2021/03/12 07:24:21;;;;;;;1.70;1.50;;;7.50;99.90;;;;;;5061890;28;20481;-71
2021/03/12 07:26:50;;;;;;;0.90;0.60;;;7.50;99.90;;;;;;5057669;28;20450;-70
2021/03/12 07:29:19;;;;;;;2.27;1.23;;;7.40;99.90;;;;;;5062103;28;20450;-70
2021/03/12 07:31:50;;;;;;;1.40;0.90;;;7.30;99.90;;;;;;5060582;28;20511;-69
2021/03/12 07:34:19;;;;;;;2.90;1.30;;;7.40;99.90;;;;;;5059479;28;20520;-69
2021/03/12 07:36:48;;;;;;;1.53;1.17;;;7.50;99.90;;;;;;5061682;28;20429;-70
2021/03/12 07:39:20;;;;;;;1.77;1.67;;;7.60;99.90;;;;;;5067107;28;20652;-70
2021/03/12 07:41:48;;;;;;;9.80;2.90;;;7.60;99.90;;;;;;5063019;28;20894;-68
2021/03/12 07:44:17;;;;;;;1.70;1.40;;;7.60;99.90;;;;;;5064924;28;20445;-69
2021/03/12 07:46:48;;;;;;;5.17;1.10;;;7.60;99.90;;;;;;5063895;28;20912;-70
2021/03/12 07:49:37;;;;;;;3.10;1.90;;;7.60;99.90;;;;;;5067303;28;21012;-70
2021/03/12 07:52:05;;;;;;;3.53;1.20;;;7.60;99.90;;;;;;5069682;28;20520;-69
2021/03/12 07:54:48;;;;;;;8.37;2.63;;;7.60;99.90;;;;;;5069759;28;20405;-71
2021/03/12 07:57:15;;;;;;;2.90;1.97;;;7.70;99.90;;;;;;5065874;28;20463;-70
2021/03/12 08:00:00;;;;;;;3.43;2.23;;;7.80;99.90;;;;;;5069585;28;20466;-71
2021/03/12 08:02:56;;;;;;;2.40;1.80;;;7.80;99.90;;;;;;5069787;28;20499;-70
2021/03/12 08:05:34;;;;;;;4.43;2.27;;;7.60;99.90;;;;;;5065936;28;20466;-70
2021/03/12 08:08:02;;;;;;;3.20;2.90;;;7.70;99.90;;;;;;5066536;28;20482;-70
2021/03/12 08:10:28;;;;;;;2.37;1.97;;;7.80;99.90;;;;;;5068977;28;20469;-71
2021/03/12 08:12:55;;;;;;;2.57;1.07;;;7.70;99.90;;;;;;5068130;28;20523;-71
2021/03/12 08:15:24;;;;;;;2.93;1.77;;;7.90;99.90;;;;;;5061560;28;20444;-70
2021/03/12 08:18:26;;;;;;;4.60;2.07;;;8.00;99.90;;;;;;5065354;28;20451;-71
2021/03/12 08:20:52;;;;;;;3.00;1.90;;;8.10;99.90;;;;;;5066912;28;20560;-71
2021/03/12 08:23:33;;;;;;;4.50;1.43;;;8.10;99.90;;;;;;5068899;28;20490;-71
2021/03/12 08:26:00;;;;;;;1.37;1.27;;;8.10;99.90;;;;;;5065999;28;20441;-71
2021/03/12 08:28:29;;;;;;;4.10;1.57;;;8.20;99.90;;;;;;5066936;28;20436;-70
2021/03/12 08:30:57;;;;;;;6.17;2.60;;;8.20;99.90;;;;;;5066564;28;20441;-71
2021/03/12 08:33:35;;;;;;;1.00;0.83;;;8.10;99.90;;;;;;5069265;28;20732;-70
2021/03/12 08:36:02;;;;;;;2.90;1.20;;;8.10;99.90;;;;;;5061029;28;20466;-70
2021/03/12 08:38:42;;;;;;;16.73;2.40;;;8.20;99.90;;;;;;5052623;28;20486;-71
2021/03/12 08:41:15;;;;;;;1.20;1.00;;;8.20;99.90;;;;;;5053772;28;20457;-72
2021/03/12 08:43:45;;;;;;;2.60;1.47;;;8.40;99.90;;;;;;5055834;28;20935;-71
2021/03/12 08:46:15;;;;;;;2.57;2.33;;;8.50;99.90;;;;;;5056653;28;20511;-70
2021/03/12 08:48:44;;;;;;;1.70;1.43;;;8.50;99.90;;;;;;5056115;28;20450;-70
2021/03/12 08:51:14;;;;;;;1.27;0.87;;;8.50;99.90;;;;;;5061952;28;20469;-70
2021/03/12 08:53:45;;;;;;;2.37;1.20;;;8.60;99.90;;;;;;5058284;28;20451;-71
2021/03/12 08:56:12;;;;;;;2.53;1.63;;;8.80;99.90;;;;;;5059940;28;20439;-70
2021/03/12 08:58:43;;;;;;;1.10;0.83;;;8.80;99.90;;;;;;5058355;28;20502;-70
2021/03/12 09:01:12;;;;;;;2.30;1.50;;;8.70;99.90;;;;;;5060169;28;20472;-71
2021/03/12 09:03:42;;;;;;;3.97;2.00;;;8.70;99.90;;;;;;5059584;28;20465;-70
2021/03/12 09:06:12;;;;;;;1.63;1.10;;;8.80;99.90;;;;;;5058507;28;20826;-69
2021/03/12 09:08:40;;;;;;;4.33;1.40;;;9.00;99.90;;;;;;5058105;28;20478;-70
2021/03/12 09:11:08;;;;;;;3.60;1.77;;;9.10;99.90;;;;;;5061739;28;20861;-71
2021/03/12 09:13:36;;;;;;;2.40;1.40;;;9.30;99.90;;;;;;5060868;28;20508;-69
2021/03/12 09:16:05;;;;;;;4.37;1.90;;;9.60;99.90;;;;;;5061318;28;20536;-70
2021/03/12 09:18:33;;;;;;;3.57;3.00;;;9.70;99.90;;;;;;5057991;28;20472;-69
2021/03/12 09:21:01;;;;;;;4.90;1.80;;;9.50;99.90;;;;;;5061079;28;20466;-70
2021/03/12 09:23:37;;;;;;;3.87;1.30;;;9.50;99.90;;;;;;5062787;28;20833;-70
2021/03/12 09:26:04;;;;;;;1.10;0.90;;;9.70;99.90;;;;;;5057804;28;20429;-70
2021/03/12 09:28:31;;;;;;;1.27;0.90;;;9.70;99.90;;;;;;5060061;28;20508;-70
2021/03/12 09:30:59;;;;;;;6.90;2.23;;;9.70;99.90;;;;;;5055771;28;20460;-71
2021/03/12 09:33:31;;;;;;;2.67;1.10;;;9.70;99.90;;;;;;5060672;28;20454;-71
2021/03/12 09:35:59;;;;;;;1.43;1.20;;;9.70;99.90;;;;;;5059290;28;20459;-71
2021/03/12 09:38:30;;;;;;;1.50;1.10;;;9.80;99.90;;;;;;5055782;28;20525;-70
2021/03/12 09:40:58;;;;;;;4.33;1.67;;;9.70;99.90;;;;;;5060576;28;20501;-71
2021/03/12 09:43:25;;;;;;;3.70;1.90;;;9.90;99.90;;;;;;5057638;28;20482;-71
2021/03/12 09:45:51;;;;;;;13.07;2.93;;;9.70;99.90;;;;;;5057459;28;20451;-71
2021/03/12 09:48:18;;;;;;;7.60;1.87;;;9.70;99.90;;;;;;5058819;28;20910;-70
2021/03/12 09:50:45;;;;;;;5.40;1.93;;;10.00;99.90;;;;;;5058743;28;20471;-71
2021/03/12 09:53:12;;;;;;;2.63;1.47;;;10.30;99.90;;;;;;5056947;28;20444;-71
2021/03/12 09:55:39;;;;;;;3.00;1.83;;;10.80;99.90;;;;;;5061367;28;20454;-70
2021/03/12 09:58:10;;;;;;;3.77;1.30;;;10.70;99.90;;;;;;5059074;28;20433;-70
2021/03/12 10:00:37;;;;;;;7.90;1.90;;;10.50;99.90;;;;;;5063080;28;20506;-71
2021/03/12 10:03:04;;;;;;;4.50;1.20;;;11.00;99.90;;;;;;5060300;28;20491;-70
2021/03/12 10:05:31;;;;;;;8.10;2.60;;;12.40;99.90;;;;;;5056231;28;20486;-71
2021/03/12 10:08:02;;;;;;;3.70;1.20;;;12.40;99.90;;;;;;5058028;28;20526;-70
2021/03/12 10:10:31;;;;;;;11.03;2.00;;;12.20;99.90;;;;;;5059160;28;20495;-70
2021/03/12 10:12:58;;;;;;;5.37;1.47;;;12.30;99.90;;;;;;5060163;28;20790;-70
2021/03/12 10:15:29;;;;;;;1.63;1.53;;;12.20;99.90;;;;;;5058165;28;20459;-71
2021/03/12 10:17:56;;;;;;;1.10;1.00;;;12.30;99.90;;;;;;5053822;28;20530;-70
2021/03/12 10:20:28;;;;;;;3.73;1.50;;;12.60;99.90;;;;;;5058573;28;21073;-72
2021/03/12 10:22:58;;;;;;;2.70;1.50;;;12.50;99.90;;;;;;5056194;28;20446;-71
2021/03/12 10:25:27;;;;;;;4.20;1.40;;;12.80;99.90;;;;;;5059464;28;21015;-71
2021/03/12 10:27:56;;;;;;;1.70;1.60;;;12.60;99.90;;;;;;5053641;28;20465;-71
2021/03/12 10:30:29;;;;;;;2.23;1.10;;;12.70;99.90;;;;;;5058819;28;20479;-71
2021/03/12 10:32:58;;;;;;;2.33;1.63;;;12.30;99.90;;;;;;5056357;28;20504;-71
2021/03/12 10:35:27;;;;;;;3.87;1.67;;;12.00;99.90;;;;;;5058579;28;21205;-71
2021/03/12 10:37:55;;;;;;;5.20;1.57;;;12.10;99.90;;;;;;5056695;28;20498;-71
2021/03/12 10:40:24;;;;;;;9.80;2.47;;;11.80;99.90;;;;;;5062757;28;20493;-71
2021/03/12 10:42:51;;;;;;;1.73;1.63;;;11.60;99.90;;;;;;5057802;28;20429;-70
2021/03/12 10:45:23;;;;;;;4.17;1.93;;;11.30;99.90;;;;;;5057799;28;20466;-71
2021/03/12 10:48:02;;;;;;;9.33;1.73;;;11.10;99.90;;;;;;5055186;28;21023;-71
2021/03/12 10:50:32;;;;;;;3.53;2.70;;;10.80;99.90;;;;;;5059186;28;20463;-71
2021/03/12 10:53:07;;;;;;;3.67;2.30;;;10.60;99.90;;;;;;5055211;28;20783;-70
2021/03/12 10:55:35;;;;;;;4.70;1.93;;;10.90;99.90;;;;;;5052508;28;20458;-71
2021/03/12 10:58:03;;;;;;;1.10;0.80;;;10.90;99.90;;;;;;5058570;28;21028;-71
2021/03/12 11:00:30;;;;;;;1.57;1.10;;;11.30;99.90;;;;;;5053530;28;20461;-70
2021/03/12 11:02:59;;;;;;;9.00;1.33;;;11.70;99.90;;;;;;5056737;28;20441;-70
2021/03/12 11:05:27;;;;;;;1.00;0.70;;;11.80;99.90;;;;;;5055704;28;21692;-72
2021/03/12 11:07:54;;;;;;;4.00;1.43;;;12.30;99.90;;;;;;5061436;28;20826;-71
2021/03/12 11:10:21;;;;;;;2.20;1.60;;;12.40;99.90;;;;;;5054087;28;20475;-71
2021/03/12 11:12:50;;;;;;;3.50;1.60;;;12.00;99.90;;;;;;5057496;28;20422;-72
2021/03/12 11:15:18;;;;;;;6.40;2.03;;;11.90;99.90;;;;;;5058786;28;20447;-71
2021/03/12 11:17:46;;;;;;;1.83;1.57;;;11.70;99.90;;;;;;5056989;28;20504;-71
2021/03/12 11:20:22;;;;;;;10.20;2.43;;;11.40;99.90;;;;;;5056893;28;20990;-71
2021/03/12 11:22:51;;;;;;;12.73;2.37;;;11.70;99.90;;;;;;5060562;28;20439;-72
2021/03/12 11:25:18;;;;;;;1.70;1.23;;;11.80;99.90;;;;;;5057711;28;21123;-71
2021/03/12 11:27:46;;;;;;;3.47;1.33;;;12.10;99.90;;;;;;5055907;28;20466;-72
2021/03/12 11:30:17;;;;;;;8.13;2.77;;;12.40;99.90;;;;;;5055397;28;20463;-71
2021/03/12 11:32:44;;;;;;;1.70;1.10;;;12.60;99.90;;;;;;5059517;28;20935;-71
2021/03/12 11:35:11;;;;;;;2.40;1.37;;;11.70;99.90;;;;;;5057100;28;21077;-72
2021/03/12 11:37:38;;;;;;;4.00;1.43;;;11.30;99.90;;;;;;5055450;28;20461;-72
2021/03/12 11:40:08;;;;;;;11.07;1.67;;;10.60;99.90;;;;;;5061934;28;20478;-71
2021/03/12 11:42:37;;;;;;;2.60;1.83;;;10.30;99.90;;;;;;5062771;28;20439;-72
2021/03/12 11:45:05;;;;;;;2.53;1.37;;;10.60;99.90;;;;;;5055745;28;20966;-71
2021/03/12 11:47:32;;;;;;;1.67;1.00;;;10.60;99.90;;;;;;5056479;28;20527;-71
2021/03/12 11:49:59;;;;;;;3.13;1.80;;;10.60;99.90;;;;;;5059167;28;20552;-71
2021/03/12 11:52:26;;;;;;;9.60;2.00;;;10.30;99.90;;;;;;5053080;28;20471;-72
2021/03/12 11:54:53;;;;;;;2.97;1.87;;;10.40;99.90;;;;;;5059977;28;20541;-70
2021/03/12 11:57:21;;;;;;;2.43;1.00;;;10.50;99.90;;;;;;5063662;28;20448;-71
2021/03/12 11:59:47;;;;;;;3.47;0.93;;;10.40;99.90;;;;;;5061868;28;20504;-71
2021/03/12 12:02:15;;;;;;;1.93;1.00;;;10.30;99.90;;;;;;5064591;28;20482;-70
2021/03/12 12:04:43;;;;;;;1.30;0.90;;;10.70;99.90;;;;;;5066885;28;20451;-73
2021/03/12 12:07:10;;;;;;;8.30;1.20;;;10.90;99.90;;;;;;5054177;28;20458;-73
2021/03/12 12:09:36;;;;;;;1.40;1.10;;;11.00;99.90;;;;;;5058845;28;20447;-72
2021/03/12 12:12:04;;;;;;;1.87;0.90;;;11.20;99.90;;;;;;5063312;28;20543;-73
2021/03/12 12:14:31;;;;;;;6.40;1.73;;;11.70;99.90;;;;;;5065677;28;20503;-70
2021/03/12 12:16:58;;;;;;;2.33;1.43;;;12.00;99.90;;;;;;5058184;28;20597;-72
2021/03/12 12:19:24;;;;;;;4.70;1.30;;;12.20;99.90;;;;;;5061777;28;20452;-72
2021/03/12 12:21:51;;;;;;;8.13;1.67;;;12.10;99.90;;;;;;5065225;28;20474;-71
2021/03/12 12:24:18;;;;;;;4.10;1.47;;;12.70;99.90;;;;;;5058809;28;20459;-71
2021/03/12 12:26:45;;;;;;;7.10;1.73;;;12.90;99.90;;;;;;5065768;28;20459;-69
2021/03/12 12:29:12;;;;;;;3.93;1.00;;;13.00;99.90;;;;;;5062577;28;20501;-70
2021/03/12 12:31:39;;;;;;;6.53;1.93;;;12.50;99.90;;;;;;5055996;28;20459;-71
2021/03/12 12:34:06;;;;;;;5.93;1.70;;;11.60;99.90;;;;;;5067321;28;20442;-71
2021/03/12 12:36:34;;;;;;;2.23;1.10;;;11.40;99.90;;;;;;5064918;28;20463;-73
2021/03/12 12:39:04;;;;;;;3.90;3.70;;;11.40;99.90;;;;;;5061344;28;20502;-71
2021/03/12 12:41:31;;;;;;;2.47;1.03;;;11.40;99.90;;;;;;5066257;28;20880;-73
2021/03/12 12:43:58;;;;;;;2.40;1.40;;;11.20;99.90;;;;;;5065687;28;20447;-72
2021/03/12 12:46:24;;;;;;;1.57;1.30;;;11.20;99.90;;;;;;5058494;28;21382;-72
2021/03/12 12:48:52;;;;;;;3.73;1.23;;;11.10;99.90;;;;;;5066450;28;20451;-72
2021/03/12 12:51:21;;;;;;;1.20;1.10;;;11.10;99.90;;;;;;5059264;28;20471;-71
2021/03/12 12:53:48;;;;;;;1.20;1.03;;;10.80;99.90;;;;;;5070277;28;21004;-71
2021/03/12 12:56:15;;;;;;;5.83;1.60;;;10.80;99.90;;;;;;5067567;28;20414;-72
2021/03/12 12:58:41;;;;;;;2.47;1.40;;;10.90;99.90;;;;;;5062772;28;20558;-71
2021/03/12 13:01:08;;;;;;;1.37;0.97;;;11.00;99.90;;;;;;5050139;28;20528;-71